VVPB/HUI METAR and TAF weather

Enter ICAO airport designator
Station Type Date Time Source
VVPB METAR 2019/05/20 10:30 UTC NOAA

VVPB 201030Z 22004KT 9999 FEW017CB 32/24 Q1005 NOSIG


Station Type Date Time Source
VVPB Decoded METAR 2019/05/20 10:30 UTC NOAA

Hue, Vietnam (VVPB) 16-24N 107-41E 17M
May 20, 2019 - 06:30 AM EDT / 2019.05.20 1030 UTC
Wind: from the SW (220 degrees) at 5 MPH (4 KT):0
Visibility: greater than 7 mile(s):0
Sky conditions: mostly clear
Weather: Cumulonimbus clouds observed
Temperature: 89 F (32 C)
Heat index: 98.4 F (36.9 C):1
Dew Point: 75 F (24 C)
Relative Humidity: 62%
Pressure (altimeter): 29.68 in. Hg (1005 hPa)
ob: VVPB 201030Z 22004KT 9999 FEW017CB 32/24 Q1005 NOSIG
cycle: 10

Station Type Date Time Source
VVPB TAF 2019/05/20 06:00 UTC NOAA

TAF VVPB 200500Z 2006/2106 06010KT 9999 FEW020
TEMPO 2008/2012 TS SCT013 FEW015CB PROB40
TEMPO 2009/2011 4000 TSRA SCT013 FEW015CB BKN050
BECMG 2014/2016 24004KT

Example: see airport list